sensor_id;sensor_type;location;lat;lon;timestamp;P1;durP1;ratioP1;P2;durP2;ratioP2
19965;SDS011;10144;50.874;4.762;2022-11-20T00:00:08;69.73;;;25.40;;
19965;SDS011;10144;50.874;4.762;2022-11-20T00:02:38;70.67;;;25.43;;
19965;SDS011;10144;50.874;4.762;2022-11-20T00:07:36;74.40;;;26.80;;
19965;SDS011;10144;50.874;4.762;2022-11-20T00:12:31;72.00;;;26.43;;
19965;SDS011;10144;50.874;4.762;2022-11-20T00:15:02;69.67;;;26.50;;
19965;SDS011;10144;50.874;4.762;2022-11-20T00:17:32;71.53;;;25.40;;
19965;SDS011;10144;50.874;4.762;2022-11-20T00:20:04;70.60;;;25.87;;
19965;SDS011;10144;50.874;4.762;2022-11-20T00:24:59;71.70;;;26.37;;
19965;SDS011;10144;50.874;4.762;2022-11-20T00:30:05;69.87;;;26.53;;
19965;SDS011;10144;50.874;4.762;2022-11-20T00:32:32;72.27;;;26.17;;
19965;SDS011;10144;50.874;4.762;2022-11-20T00:34:59;72.33;;;25.83;;
19965;SDS011;10144;50.874;4.762;2022-11-20T00:45:02;61.97;;;23.40;;
19965;SDS011;10144;50.874;4.762;2022-11-20T00:47:29;67.20;;;25.90;;
19965;SDS011;10144;50.874;4.762;2022-11-20T00:49:54;62.93;;;24.73;;
19965;SDS011;10144;50.874;4.762;2022-11-20T00:52:23;62.07;;;24.63;;
19965;SDS011;10144;50.874;4.762;2022-11-20T00:57:24;66.23;;;24.00;;
19965;SDS011;10144;50.874;4.762;2022-11-20T00:59:52;64.60;;;23.87;;
19965;SDS011;10144;50.874;4.762;2022-11-20T01:02:20;61.17;;;24.53;;
19965;SDS011;10144;50.874;4.762;2022-11-20T01:04:49;70.57;;;25.37;;
19965;SDS011;10144;50.874;4.762;2022-11-20T01:07:15;67.03;;;24.63;;
19965;SDS011;10144;50.874;4.762;2022-11-20T01:09:40;67.47;;;24.77;;
19965;SDS011;10144;50.874;4.762;2022-11-20T01:12:09;68.70;;;25.77;;
19965;SDS011;10144;50.874;4.762;2022-11-20T01:14:40;69.80;;;25.80;;
19965;SDS011;10144;50.874;4.762;2022-11-20T01:17:08;65.47;;;25.30;;
19965;SDS011;10144;50.874;4.762;2022-11-20T01:22:03;74.40;;;25.73;;
19965;SDS011;10144;50.874;4.762;2022-11-20T01:24:32;76.03;;;26.60;;
19965;SDS011;10144;50.874;4.762;2022-11-20T01:27:13;72.20;;;25.63;;
19965;SDS011;10144;50.874;4.762;2022-11-20T01:29:42;66.10;;;24.67;;
19965;SDS011;10144;50.874;4.762;2022-11-20T01:32:07;72.13;;;25.93;;
19965;SDS011;10144;50.874;4.762;2022-11-20T01:34:33;75.53;;;26.37;;
19965;SDS011;10144;50.874;4.762;2022-11-20T01:39:28;80.20;;;25.87;;
19965;SDS011;10144;50.874;4.762;2022-11-20T01:41:57;95.80;;;28.60;;
19965;SDS011;10144;50.874;4.762;2022-11-20T01:44:49;87.83;;;27.80;;
19965;SDS011;10144;50.874;4.762;2022-11-20T01:50:31;90.10;;;27.40;;
19965;SDS011;10144;50.874;4.762;2022-11-20T01:53:05;92.77;;;28.13;;
19965;SDS011;10144;50.874;4.762;2022-11-20T01:55:36;89.53;;;27.73;;
19965;SDS011;10144;50.874;4.762;2022-11-20T01:58:08;89.40;;;27.60;;
19965;SDS011;10144;50.874;4.762;2022-11-20T02:00:34;91.13;;;27.93;;
19965;SDS011;10144;50.874;4.762;2022-11-20T02:03:05;84.30;;;27.40;;
19965;SDS011;10144;50.874;4.762;2022-11-20T02:05:45;89.37;;;27.57;;
19965;SDS011;10144;50.874;4.762;2022-11-20T02:10:48;86.27;;;28.27;;
19965;SDS011;10144;50.874;4.762;2022-11-20T02:13:14;91.80;;;28.23;;
19965;SDS011;10144;50.874;4.762;2022-11-20T02:16:00;82.03;;;26.97;;
19965;SDS011;10144;50.874;4.762;2022-11-20T02:18:29;87.23;;;27.43;;
19965;SDS011;10144;50.874;4.762;2022-11-20T02:29:30;84.73;;;28.17;;
19965;SDS011;10144;50.874;4.762;2022-11-20T02:32:00;90.07;;;28.63;;
19965;SDS011;10144;50.874;4.762;2022-11-20T02:34:29;83.57;;;28.27;;
19965;SDS011;10144;50.874;4.762;2022-11-20T02:39:26;87.30;;;29.53;;
19965;SDS011;10144;50.874;4.762;2022-11-20T02:41:54;88.87;;;28.20;;
19965;SDS011;10144;50.874;4.762;2022-11-20T02:44:24;91.50;;;29.93;;
19965;SDS011;10144;50.874;4.762;2022-11-20T02:49:27;86.43;;;29.93;;
19965;SDS011;10144;50.874;4.762;2022-11-20T02:51:55;84.57;;;27.53;;
19965;SDS011;10144;50.874;4.762;2022-11-20T02:54:20;87.37;;;28.90;;
19965;SDS011;10144;50.874;4.762;2022-11-20T02:56:46;89.60;;;29.40;;
19965;SDS011;10144;50.874;4.762;2022-11-20T02:59:15;100.53;;;29.53;;
19965;SDS011;10144;50.874;4.762;2022-11-20T03:04:20;90.90;;;29.17;;
19965;SDS011;10144;50.874;4.762;2022-11-20T03:06:47;90.70;;;28.57;;
19965;SDS011;10144;50.874;4.762;2022-11-20T03:09:14;96.43;;;30.43;;
19965;SDS011;10144;50.874;4.762;2022-11-20T03:11:39;89.97;;;29.23;;
19965;SDS011;10144;50.874;4.762;2022-11-20T03:14:08;96.10;;;27.63;;
19965;SDS011;10144;50.874;4.762;2022-11-20T03:16:34;91.10;;;28.17;;
19965;SDS011;10144;50.874;4.762;2022-11-20T03:19:06;92.60;;;27.60;;
19965;SDS011;10144;50.874;4.762;2022-11-20T03:21:38;95.37;;;28.60;;
19965;SDS011;10144;50.874;4.762;2022-11-20T03:24:05;109.73;;;29.37;;
19965;SDS011;10144;50.874;4.762;2022-11-20T03:26:31;101.60;;;28.67;;
19965;SDS011;10144;50.874;4.762;2022-11-20T03:28:59;96.67;;;27.77;;
19965;SDS011;10144;50.874;4.762;2022-11-20T03:31:30;113.67;;;30.07;;
19965;SDS011;10144;50.874;4.762;2022-11-20T03:34:00;114.73;;;29.67;;
19965;SDS011;10144;50.874;4.762;2022-11-20T03:36:29;100.13;;;29.13;;
19965;SDS011;10144;50.874;4.762;2022-11-20T03:38:57;104.07;;;28.37;;
19965;SDS011;10144;50.874;4.762;2022-11-20T03:41:23;98.13;;;28.97;;
19965;SDS011;10144;50.874;4.762;2022-11-20T03:43:56;109.47;;;29.17;;
19965;SDS011;10144;50.874;4.762;2022-11-20T03:46:24;110.43;;;28.77;;
19965;SDS011;10144;50.874;4.762;2022-11-20T03:48:52;109.03;;;29.60;;
19965;SDS011;10144;50.874;4.762;2022-11-20T03:51:26;99.93;;;28.67;;
19965;SDS011;10144;50.874;4.762;2022-11-20T03:54:05;107.20;;;29.50;;
19965;SDS011;10144;50.874;4.762;2022-11-20T03:59:04;97.33;;;28.00;;
19965;SDS011;10144;50.874;4.762;2022-11-20T04:04:05;94.20;;;27.33;;
19965;SDS011;10144;50.874;4.762;2022-11-20T04:06:34;93.03;;;26.83;;
19965;SDS011;10144;50.874;4.762;2022-11-20T04:09:13;89.57;;;26.03;;
19965;SDS011;10144;50.874;4.762;2022-11-20T04:11:39;89.67;;;26.20;;
19965;SDS011;10144;50.874;4.762;2022-11-20T04:14:15;95.90;;;27.37;;
19965;SDS011;10144;50.874;4.762;2022-11-20T04:16:47;86.40;;;26.67;;
19965;SDS011;10144;50.874;4.762;2022-11-20T04:19:15;97.27;;;27.20;;
19965;SDS011;10144;50.874;4.762;2022-11-20T04:21:42;97.83;;;28.27;;
19965;SDS011;10144;50.874;4.762;2022-11-20T04:24:11;80.67;;;25.40;;
19965;SDS011;10144;50.874;4.762;2022-11-20T04:26:40;99.37;;;27.63;;
19965;SDS011;10144;50.874;4.762;2022-11-20T04:29:06;87.20;;;26.57;;
19965;SDS011;10144;50.874;4.762;2022-11-20T04:31:37;89.80;;;27.07;;
19965;SDS011;10144;50.874;4.762;2022-11-20T04:34:06;92.73;;;27.17;;
19965;SDS011;10144;50.874;4.762;2022-11-20T04:36:32;86.70;;;26.30;;
19965;SDS011;10144;50.874;4.762;2022-11-20T04:39:05;88.30;;;25.87;;
19965;SDS011;10144;50.874;4.762;2022-11-20T04:41:34;100.47;;;26.13;;
19965;SDS011;10144;50.874;4.762;2022-11-20T04:44:03;93.70;;;26.70;;
19965;SDS011;10144;50.874;4.762;2022-11-20T04:46:35;92.27;;;26.67;;
19965;SDS011;10144;50.874;4.762;2022-11-20T04:49:05;85.43;;;25.83;;
19965;SDS011;10144;50.874;4.762;2022-11-20T04:54:03;86.63;;;26.17;;
19965;SDS011;10144;50.874;4.762;2022-11-20T04:59:04;84.43;;;25.43;;
19965;SDS011;10144;50.874;4.762;2022-11-20T05:01:33;85.43;;;24.63;;
19965;SDS011;10144;50.874;4.762;2022-11-20T05:04:12;74.07;;;24.13;;
19965;SDS011;10144;50.874;4.762;2022-11-20T05:06:37;83.67;;;24.70;;
19965;SDS011;10144;50.874;4.762;2022-11-20T05:09:06;88.67;;;24.80;;
19965;SDS011;10144;50.874;4.762;2022-11-20T05:11:32;79.73;;;23.73;;
19965;SDS011;10144;50.874;4.762;2022-11-20T05:13:58;76.83;;;24.10;;
19965;SDS011;10144;50.874;4.762;2022-11-20T05:16:24;78.67;;;22.67;;
19965;SDS011;10144;50.874;4.762;2022-11-20T05:21:22;80.27;;;23.53;;
19965;SDS011;10144;50.874;4.762;2022-11-20T05:26:20;84.30;;;24.83;;
19965;SDS011;10144;50.874;4.762;2022-11-20T05:28:49;85.13;;;24.27;;
19965;SDS011;10144;50.874;4.762;2022-11-20T05:31:18;92.03;;;25.70;;
19965;SDS011;10144;50.874;4.762;2022-11-20T05:33:50;85.57;;;24.13;;
19965;SDS011;10144;50.874;4.762;2022-11-20T05:36:29;86.37;;;24.20;;
19965;SDS011;10144;50.874;4.762;2022-11-20T05:38:56;77.93;;;23.97;;
19965;SDS011;10144;50.874;4.762;2022-11-20T05:41:25;81.53;;;23.67;;
19965;SDS011;10144;50.874;4.762;2022-11-20T05:46:27;80.73;;;24.17;;
19965;SDS011;10144;50.874;4.762;2022-11-20T05:48:54;77.73;;;23.40;;
19965;SDS011;10144;50.874;4.762;2022-11-20T05:51:27;84.70;;;23.53;;
19965;SDS011;10144;50.874;4.762;2022-11-20T05:53:52;88.70;;;23.23;;
19965;SDS011;10144;50.874;4.762;2022-11-20T05:56:21;84.30;;;23.20;;
19965;SDS011;10144;50.874;4.762;2022-11-20T05:58:49;87.40;;;23.87;;
19965;SDS011;10144;50.874;4.762;2022-11-20T06:01:21;85.17;;;23.40;;
19965;SDS011;10144;50.874;4.762;2022-11-20T06:03:53;79.53;;;22.07;;
19965;SDS011;10144;50.874;4.762;2022-11-20T06:06:21;75.77;;;22.87;;
19965;SDS011;10144;50.874;4.762;2022-11-20T06:08:47;82.57;;;23.73;;
19965;SDS011;10144;50.874;4.762;2022-11-20T06:11:14;76.30;;;22.83;;
19965;SDS011;10144;50.874;4.762;2022-11-20T06:13:47;81.33;;;24.00;;
19965;SDS011;10144;50.874;4.762;2022-11-20T06:16:15;77.40;;;23.10;;
19965;SDS011;10144;50.874;4.762;2022-11-20T06:18:42;97.77;;;25.50;;
19965;SDS011;10144;50.874;4.762;2022-11-20T06:23:38;84.90;;;24.53;;
19965;SDS011;10144;50.874;4.762;2022-11-20T06:26:07;90.13;;;24.83;;
19965;SDS011;10144;50.874;4.762;2022-11-20T06:28:38;87.07;;;24.37;;
19965;SDS011;10144;50.874;4.762;2022-11-20T06:31:05;85.57;;;24.87;;
19965;SDS011;10144;50.874;4.762;2022-11-20T06:33:33;86.90;;;24.50;;
19965;SDS011;10144;50.874;4.762;2022-11-20T06:38:29;83.80;;;23.40;;
19965;SDS011;10144;50.874;4.762;2022-11-20T06:40:55;93.43;;;24.07;;
19965;SDS011;10144;50.874;4.762;2022-11-20T06:43:21;94.50;;;23.70;;
19965;SDS011;10144;50.874;4.762;2022-11-20T06:45:54;83.40;;;22.03;;
19965;SDS011;10144;50.874;4.762;2022-11-20T06:48:20;90.97;;;23.53;;
19965;SDS011;10144;50.874;4.762;2022-11-20T06:50:47;81.17;;;23.60;;
19965;SDS011;10144;50.874;4.762;2022-11-20T06:53:12;94.03;;;23.30;;
19965;SDS011;10144;50.874;4.762;2022-11-20T06:55:41;95.90;;;23.20;;
19965;SDS011;10144;50.874;4.762;2022-11-20T06:58:08;93.43;;;22.47;;
19965;SDS011;10144;50.874;4.762;2022-11-20T07:00:35;92.83;;;22.83;;
19965;SDS011;10144;50.874;4.762;2022-11-20T07:03:04;103.90;;;23.97;;
19965;SDS011;10144;50.874;4.762;2022-11-20T07:05:30;112.70;;;25.57;;
19965;SDS011;10144;50.874;4.762;2022-11-20T07:07:56;121.77;;;24.40;;
19965;SDS011;10144;50.874;4.762;2022-11-20T07:10:22;137.43;;;26.27;;
19965;SDS011;10144;50.874;4.762;2022-11-20T07:12:49;132.37;;;25.63;;
19965;SDS011;10144;50.874;4.762;2022-11-20T07:15:16;138.40;;;25.50;;
19965;SDS011;10144;50.874;4.762;2022-11-20T07:17:42;132.00;;;24.80;;
19965;SDS011;10144;50.874;4.762;2022-11-20T07:20:08;169.33;;;28.27;;
19965;SDS011;10144;50.874;4.762;2022-11-20T07:22:34;155.57;;;26.67;;
19965;SDS011;10144;50.874;4.762;2022-11-20T07:25:00;158.87;;;27.23;;
19965;SDS011;10144;50.874;4.762;2022-11-20T07:27:26;168.33;;;27.20;;
19965;SDS011;10144;50.874;4.762;2022-11-20T07:29:52;156.87;;;26.63;;
19965;SDS011;10144;50.874;4.762;2022-11-20T07:32:18;161.97;;;27.93;;
19965;SDS011;10144;50.874;4.762;2022-11-20T07:34:43;160.53;;;25.60;;
19965;SDS011;10144;50.874;4.762;2022-11-20T07:37:09;145.30;;;25.33;;
19965;SDS011;10144;50.874;4.762;2022-11-20T07:39:34;175.73;;;26.73;;
19965;SDS011;10144;50.874;4.762;2022-11-20T07:42:00;166.50;;;26.77;;
19965;SDS011;10144;50.874;4.762;2022-11-20T07:44:26;159.37;;;25.57;;
19965;SDS011;10144;50.874;4.762;2022-11-20T07:46:51;149.63;;;24.80;;
19965;SDS011;10144;50.874;4.762;2022-11-20T07:49:17;191.40;;;29.60;;
19965;SDS011;10144;50.874;4.762;2022-11-20T07:51:42;179.77;;;28.57;;
19965;SDS011;10144;50.874;4.762;2022-11-20T07:54:08;168.10;;;27.47;;
19965;SDS011;10144;50.874;4.762;2022-11-20T07:56:35;155.40;;;26.70;;
19965;SDS011;10144;50.874;4.762;2022-11-20T07:59:00;164.33;;;26.93;;
19965;SDS011;10144;50.874;4.762;2022-11-20T08:01:26;149.00;;;28.17;;
19965;SDS011;10144;50.874;4.762;2022-11-20T08:03:52;174.13;;;27.13;;
19965;SDS011;10144;50.874;4.762;2022-11-20T08:06:18;147.60;;;26.70;;
19965;SDS011;10144;50.874;4.762;2022-11-20T08:08:44;158.13;;;27.13;;
19965;SDS011;10144;50.874;4.762;2022-11-20T08:11:10;155.70;;;27.07;;
19965;SDS011;10144;50.874;4.762;2022-11-20T08:13:54;154.80;;;28.30;;
19965;SDS011;10144;50.874;4.762;2022-11-20T08:16:38;145.30;;;28.27;;
19965;SDS011;10144;50.874;4.762;2022-11-20T08:19:14;143.83;;;26.67;;
19965;SDS011;10144;50.874;4.762;2022-11-20T08:21:41;137.67;;;27.97;;
19965;SDS011;10144;50.874;4.762;2022-11-20T08:24:07;134.30;;;26.57;;
19965;SDS011;10144;50.874;4.762;2022-11-20T08:26:34;143.07;;;27.93;;
19965;SDS011;10144;50.874;4.762;2022-11-20T08:29:00;143.80;;;28.20;;
19965;SDS011;10144;50.874;4.762;2022-11-20T08:31:26;147.93;;;26.03;;
19965;SDS011;10144;50.874;4.762;2022-11-20T08:33:52;138.30;;;26.73;;
19965;SDS011;10144;50.874;4.762;2022-11-20T08:36:19;136.30;;;27.17;;
19965;SDS011;10144;50.874;4.762;2022-11-20T08:38:49;147.60;;;27.53;;
19965;SDS011;10144;50.874;4.762;2022-11-20T08:41:15;131.87;;;27.13;;
19965;SDS011;10144;50.874;4.762;2022-11-20T08:43:55;134.93;;;25.90;;
19965;SDS011;10144;50.874;4.762;2022-11-20T08:46:23;135.57;;;26.17;;
19965;SDS011;10144;50.874;4.762;2022-11-20T08:48:49;130.63;;;25.03;;
19965;SDS011;10144;50.874;4.762;2022-11-20T08:51:15;145.87;;;26.93;;
19965;SDS011;10144;50.874;4.762;2022-11-20T08:53:41;130.67;;;27.23;;
19965;SDS011;10144;50.874;4.762;2022-11-20T08:56:08;140.63;;;26.43;;
19965;SDS011;10144;50.874;4.762;2022-11-20T08:58:37;143.30;;;27.13;;
19965;SDS011;10144;50.874;4.762;2022-11-20T09:01:04;129.63;;;26.77;;
19965;SDS011;10144;50.874;4.762;2022-11-20T09:03:29;142.87;;;26.63;;
19965;SDS011;10144;50.874;4.762;2022-11-20T09:06:03;139.70;;;26.07;;
19965;SDS011;10144;50.874;4.762;2022-11-20T09:08:30;135.33;;;26.33;;
19965;SDS011;10144;50.874;4.762;2022-11-20T09:10:56;153.37;;;26.53;;
19965;SDS011;10144;50.874;4.762;2022-11-20T09:13:23;147.13;;;27.80;;
19965;SDS011;10144;50.874;4.762;2022-11-20T09:15:54;158.23;;;29.27;;
19965;SDS011;10144;50.874;4.762;2022-11-20T09:18:24;136.37;;;25.50;;
19965;SDS011;10144;50.874;4.762;2022-11-20T09:20:50;140.03;;;25.00;;
19965;SDS011;10144;50.874;4.762;2022-11-20T09:23:16;132.97;;;25.73;;
19965;SDS011;10144;50.874;4.762;2022-11-20T09:25:42;152.17;;;26.80;;
19965;SDS011;10144;50.874;4.762;2022-11-20T09:28:08;168.00;;;27.57;;
19965;SDS011;10144;50.874;4.762;2022-11-20T09:30:33;157.40;;;26.33;;
19965;SDS011;10144;50.874;4.762;2022-11-20T09:32:59;157.50;;;27.13;;
19965;SDS011;10144;50.874;4.762;2022-11-20T09:35:24;165.87;;;26.53;;
19965;SDS011;10144;50.874;4.762;2022-11-20T09:37:50;220.00;;;27.47;;
19965;SDS011;10144;50.874;4.762;2022-11-20T09:40:23;150.37;;;26.87;;
19965;SDS011;10144;50.874;4.762;2022-11-20T09:48:24;140.50;;;28.90;;
19965;SDS011;10144;50.874;4.762;2022-11-20T09:51:12;136.33;;;27.50;;
19965;SDS011;10144;50.874;4.762;2022-11-20T09:56:36;122.17;;;26.93;;
19965;SDS011;10144;50.874;4.762;2022-11-20T09:59:06;127.60;;;25.80;;
19965;SDS011;10144;50.874;4.762;2022-11-20T10:01:39;122.43;;;25.50;;
19965;SDS011;10144;50.874;4.762;2022-11-20T10:04:12;106.37;;;24.80;;
19965;SDS011;10144;50.874;4.762;2022-11-20T10:09:37;91.77;;;22.53;;
19965;SDS011;10144;50.874;4.762;2022-11-20T10:29:15;62.40;;;18.40;;
19965;SDS011;10144;50.874;4.762;2022-11-20T10:31:50;67.73;;;19.13;;
19965;SDS011;10144;50.874;4.762;2022-11-20T10:34:34;65.13;;;18.77;;
19965;SDS011;10144;50.874;4.762;2022-11-20T10:37:16;66.93;;;19.47;;
19965;SDS011;10144;50.874;4.762;2022-11-20T10:40:05;59.73;;;17.67;;
19965;SDS011;10144;50.874;4.762;2022-11-20T10:42:56;60.67;;;18.53;;
19965;SDS011;10144;50.874;4.762;2022-11-20T10:48:14;61.17;;;19.27;;
19965;SDS011;10144;50.874;4.762;2022-11-20T10:50:50;54.00;;;16.67;;
19965;SDS011;10144;50.874;4.762;2022-11-20T10:56:17;52.83;;;17.30;;
19965;SDS011;10144;50.874;4.762;2022-11-20T10:58:50;55.40;;;17.77;;
19965;SDS011;10144;50.874;4.762;2022-11-20T11:01:43;50.53;;;16.30;;
19965;SDS011;10144;50.874;4.762;2022-11-20T11:04:33;42.13;;;14.30;;
19965;SDS011;10144;50.874;4.762;2022-11-20T11:07:01;49.33;;;15.13;;
19965;SDS011;10144;50.874;4.762;2022-11-20T11:09:52;35.80;;;12.10;;
19965;SDS011;10144;50.874;4.762;2022-11-20T11:12:19;35.67;;;12.17;;
19965;SDS011;10144;50.874;4.762;2022-11-20T11:19:45;25.20;;;8.73;;
19965;SDS011;10144;50.874;4.762;2022-11-20T11:22:16;22.00;;;8.57;;
19965;SDS011;10144;50.874;4.762;2022-11-20T11:24:51;21.57;;;7.77;;
19965;SDS011;10144;50.874;4.762;2022-11-20T11:27:17;20.73;;;7.10;;
19965;SDS011;10144;50.874;4.762;2022-11-20T11:29:43;27.30;;;7.27;;
19965;SDS011;10144;50.874;4.762;2022-11-20T11:32:13;20.87;;;6.20;;
19965;SDS011;10144;50.874;4.762;2022-11-20T11:34:42;17.70;;;7.23;;
19965;SDS011;10144;50.874;4.762;2022-11-20T11:37:19;19.30;;;6.30;;
19965;SDS011;10144;50.874;4.762;2022-11-20T11:39:49;13.70;;;5.30;;
19965;SDS011;10144;50.874;4.762;2022-11-20T11:42:17;13.60;;;4.80;;
19965;SDS011;10144;50.874;4.762;2022-11-20T11:44:45;10.07;;;4.83;;
19965;SDS011;10144;50.874;4.762;2022-11-20T11:47:31;9.80;;;4.60;;
19965;SDS011;10144;50.874;4.762;2022-11-20T11:52:48;15.53;;;4.70;;
19965;SDS011;10144;50.874;4.762;2022-11-20T11:55:17;10.47;;;3.60;;
19965;SDS011;10144;50.874;4.762;2022-11-20T12:00:17;11.60;;;3.70;;
19965;SDS011;10144;50.874;4.762;2022-11-20T12:05:21;10.33;;;3.23;;
19965;SDS011;10144;50.874;4.762;2022-11-20T12:08:36;16.60;;;3.27;;
19965;SDS011;10144;50.874;4.762;2022-11-20T12:11:11;8.37;;;3.47;;
19965;SDS011;10144;50.874;4.762;2022-11-20T12:13:48;10.73;;;3.37;;
19965;SDS011;10144;50.874;4.762;2022-11-20T12:16:23;11.13;;;3.00;;
19965;SDS011;10144;50.874;4.762;2022-11-20T12:18:50;7.63;;;2.90;;
19965;SDS011;10144;50.874;4.762;2022-11-20T12:21:31;13.67;;;2.90;;
19965;SDS011;10144;50.874;4.762;2022-11-20T12:29:57;11.13;;;2.53;;
19965;SDS011;10144;50.874;4.762;2022-11-20T12:32:42;9.87;;;3.20;;
19965;SDS011;10144;50.874;4.762;2022-11-20T12:38:13;20.10;;;5.80;;
19965;SDS011;10144;50.874;4.762;2022-11-20T12:41:00;9.20;;;3.17;;
19965;SDS011;10144;50.874;4.762;2022-11-20T12:43:28;10.90;;;3.33;;
19965;SDS011;10144;50.874;4.762;2022-11-20T12:49:15;8.13;;;2.40;;
19965;SDS011;10144;50.874;4.762;2022-11-20T12:56:53;7.97;;;3.10;;
19965;SDS011;10144;50.874;4.762;2022-11-20T13:02:27;10.13;;;3.50;;
19965;SDS011;10144;50.874;4.762;2022-11-20T13:05:06;10.13;;;3.43;;
19965;SDS011;10144;50.874;4.762;2022-11-20T13:07:58;12.73;;;3.70;;
19965;SDS011;10144;50.874;4.762;2022-11-20T13:10:29;9.30;;;3.83;;
19965;SDS011;10144;50.874;4.762;2022-11-20T13:18:28;12.83;;;3.83;;
19965;SDS011;10144;50.874;4.762;2022-11-20T13:21:12;15.40;;;5.20;;
19965;SDS011;10144;50.874;4.762;2022-11-20T13:23:39;18.80;;;6.50;;
19965;SDS011;10144;50.874;4.762;2022-11-20T13:26:06;15.13;;;5.27;;
19965;SDS011;10144;50.874;4.762;2022-11-20T13:28:42;12.93;;;4.63;;
19965;SDS011;10144;50.874;4.762;2022-11-20T13:31:24;13.10;;;4.70;;
19965;SDS011;10144;50.874;4.762;2022-11-20T13:33:59;18.60;;;5.47;;
19965;SDS011;10144;50.874;4.762;2022-11-20T13:36:27;22.23;;;5.60;;
19965;SDS011;10144;50.874;4.762;2022-11-20T13:38:54;14.20;;;5.07;;
19965;SDS011;10144;50.874;4.762;2022-11-20T13:41:32;12.27;;;4.80;;
19965;SDS011;10144;50.874;4.762;2022-11-20T13:44:12;17.30;;;5.00;;
19965;SDS011;10144;50.874;4.762;2022-11-20T13:46:59;13.50;;;4.90;;
19965;SDS011;10144;50.874;4.762;2022-11-20T13:55:04;11.30;;;3.70;;
19965;SDS011;10144;50.874;4.762;2022-11-20T14:00:14;11.93;;;3.60;;
19965;SDS011;10144;50.874;4.762;2022-11-20T14:02:42;10.37;;;3.53;;
19965;SDS011;10144;50.874;4.762;2022-11-20T14:05:22;11.77;;;3.37;;
19965;SDS011;10144;50.874;4.762;2022-11-20T14:07:49;9.47;;;3.30;;
19965;SDS011;10144;50.874;4.762;2022-11-20T14:10:20;9.13;;;3.53;;
19965;SDS011;10144;50.874;4.762;2022-11-20T14:12:51;12.10;;;4.40;;
19965;SDS011;10144;50.874;4.762;2022-11-20T14:15:30;10.30;;;4.23;;
19965;SDS011;10144;50.874;4.762;2022-11-20T14:17:57;9.87;;;3.67;;
19965;SDS011;10144;50.874;4.762;2022-11-20T14:20:24;9.90;;;4.67;;
19965;SDS011;10144;50.874;4.762;2022-11-20T14:23:01;10.83;;;4.53;;
19965;SDS011;10144;50.874;4.762;2022-11-20T14:36:42;7.13;;;3.50;;
19965;SDS011;10144;50.874;4.762;2022-11-20T14:45:22;7.00;;;3.00;;
19965;SDS011;10144;50.874;4.762;2022-11-20T14:50:38;7.87;;;3.27;;
19965;SDS011;10144;50.874;4.762;2022-11-20T14:56:26;8.57;;;3.73;;
19965;SDS011;10144;50.874;4.762;2022-11-20T14:58:55;9.43;;;3.73;;
19965;SDS011;10144;50.874;4.762;2022-11-20T15:01:28;6.40;;;3.53;;
19965;SDS011;10144;50.874;4.762;2022-11-20T15:06:36;6.13;;;3.37;;
19965;SDS011;10144;50.874;4.762;2022-11-20T15:09:03;7.03;;;3.43;;
19965;SDS011;10144;50.874;4.762;2022-11-20T15:11:31;8.50;;;4.40;;
19965;SDS011;10144;50.874;4.762;2022-11-20T15:14:01;7.07;;;3.47;;
19965;SDS011;10144;50.874;4.762;2022-11-20T15:16:29;7.80;;;3.23;;
19965;SDS011;10144;50.874;4.762;2022-11-20T15:18:55;7.73;;;3.00;;
19965;SDS011;10144;50.874;4.762;2022-11-20T15:21:22;9.27;;;4.30;;
19965;SDS011;10144;50.874;4.762;2022-11-20T15:23:48;8.30;;;5.47;;
19965;SDS011;10144;50.874;4.762;2022-11-20T15:26:15;11.80;;;6.33;;
19965;SDS011;10144;50.874;4.762;2022-11-20T15:28:47;7.00;;;3.70;;
19965;SDS011;10144;50.874;4.762;2022-11-20T15:31:15;6.80;;;3.60;;
19965;SDS011;10144;50.874;4.762;2022-11-20T15:33:43;10.13;;;4.13;;
19965;SDS011;10144;50.874;4.762;2022-11-20T15:36:09;7.20;;;3.90;;
19965;SDS011;10144;50.874;4.762;2022-11-20T15:38:35;7.53;;;3.90;;
19965;SDS011;10144;50.874;4.762;2022-11-20T15:41:01;10.73;;;4.50;;
19965;SDS011;10144;50.874;4.762;2022-11-20T15:43:26;10.67;;;4.50;;
19965;SDS011;10144;50.874;4.762;2022-11-20T15:45:56;14.33;;;4.77;;
19965;SDS011;10144;50.874;4.762;2022-11-20T15:53:34;9.23;;;5.40;;
19965;SDS011;10144;50.874;4.762;2022-11-20T15:56:00;13.97;;;5.80;;
19965;SDS011;10144;50.874;4.762;2022-11-20T15:58:26;20.00;;;6.50;;
19965;SDS011;10144;50.874;4.762;2022-11-20T16:00:52;16.07;;;5.93;;
19965;SDS011;10144;50.874;4.762;2022-11-20T16:03:18;13.13;;;6.23;;
19965;SDS011;10144;50.874;4.762;2022-11-20T16:05:44;14.10;;;6.13;;
19965;SDS011;10144;50.874;4.762;2022-11-20T16:08:10;15.87;;;6.73;;
19965;SDS011;10144;50.874;4.762;2022-11-20T16:10:37;16.67;;;6.13;;
19965;SDS011;10144;50.874;4.762;2022-11-20T16:13:03;17.17;;;6.60;;
19965;SDS011;10144;50.874;4.762;2022-11-20T16:15:52;13.43;;;5.83;;
19965;SDS011;10144;50.874;4.762;2022-11-20T16:18:22;17.83;;;5.67;;
19965;SDS011;10144;50.874;4.762;2022-11-20T16:20:48;17.67;;;5.90;;
19965;SDS011;10144;50.874;4.762;2022-11-20T16:23:16;17.60;;;6.43;;
19965;SDS011;10144;50.874;4.762;2022-11-20T16:25:42;18.67;;;5.67;;
19965;SDS011;10144;50.874;4.762;2022-11-20T16:28:08;14.47;;;5.33;;
19965;SDS011;10144;50.874;4.762;2022-11-20T16:30:34;16.30;;;5.73;;
19965;SDS011;10144;50.874;4.762;2022-11-20T16:33:03;15.23;;;5.60;;
19965;SDS011;10144;50.874;4.762;2022-11-20T16:35:33;21.97;;;5.83;;
19965;SDS011;10144;50.874;4.762;2022-11-20T16:37:59;17.93;;;5.50;;
19965;SDS011;10144;50.874;4.762;2022-11-20T16:40:25;26.03;;;6.13;;
19965;SDS011;10144;50.874;4.762;2022-11-20T16:42:51;24.17;;;5.47;;
19965;SDS011;10144;50.874;4.762;2022-11-20T16:45:17;20.23;;;5.20;;
19965;SDS011;10144;50.874;4.762;2022-11-20T16:47:43;13.70;;;4.90;;
19965;SDS011;10144;50.874;4.762;2022-11-20T16:50:09;24.67;;;5.23;;
19965;SDS011;10144;50.874;4.762;2022-11-20T16:52:34;24.67;;;5.70;;
19965;SDS011;10144;50.874;4.762;2022-11-20T16:55:00;16.47;;;5.03;;
19965;SDS011;10144;50.874;4.762;2022-11-20T16:57:26;21.13;;;5.37;;
19965;SDS011;10144;50.874;4.762;2022-11-20T16:59:53;27.70;;;5.00;;
19965;SDS011;10144;50.874;4.762;2022-11-20T17:02:19;21.60;;;4.93;;
19965;SDS011;10144;50.874;4.762;2022-11-20T17:04:45;24.60;;;5.10;;
19965;SDS011;10144;50.874;4.762;2022-11-20T17:07:10;17.50;;;4.93;;
19965;SDS011;10144;50.874;4.762;2022-11-20T17:09:36;34.80;;;5.93;;
19965;SDS011;10144;50.874;4.762;2022-11-20T17:12:02;27.97;;;5.40;;
19965;SDS011;10144;50.874;4.762;2022-11-20T17:14:28;24.40;;;4.80;;
19965;SDS011;10144;50.874;4.762;2022-11-20T17:16:53;24.57;;;5.23;;
19965;SDS011;10144;50.874;4.762;2022-11-20T17:19:19;19.57;;;4.87;;
19965;SDS011;10144;50.874;4.762;2022-11-20T17:21:45;25.43;;;4.47;;
19965;SDS011;10144;50.874;4.762;2022-11-20T17:24:11;28.37;;;4.80;;
19965;SDS011;10144;50.874;4.762;2022-11-20T17:26:38;29.30;;;4.83;;
19965;SDS011;10144;50.874;4.762;2022-11-20T17:29:10;17.37;;;4.37;;
19965;SDS011;10144;50.874;4.762;2022-11-20T17:31:40;22.80;;;4.20;;
19965;SDS011;10144;50.874;4.762;2022-11-20T17:34:07;20.63;;;3.60;;
19965;SDS011;10144;50.874;4.762;2022-11-20T17:36:36;17.60;;;3.00;;
19965;SDS011;10144;50.874;4.762;2022-11-20T17:39:04;15.93;;;3.13;;